createdAt,value
2024-05-09T00:01:11.550Z,101952.34
2024-05-09T00:06:24.056Z,101961.84
2024-05-09T00:11:32.770Z,101956.31
2024-05-09T00:16:44.628Z,101946.28
2024-05-09T00:21:53.555Z,101946.25
2024-05-09T00:27:02.959Z,101944.47
2024-05-09T00:32:15.518Z,101941.00
2024-05-09T00:37:24.383Z,101935.34
2024-05-09T00:42:32.975Z,101939.25
2024-05-09T00:47:46.957Z,101943.81
2024-05-09T00:52:55.983Z,101951.06
2024-05-09T00:58:05.389Z,101959.44
2024-05-09T01:03:17.349Z,101969.06
2024-05-09T01:08:26.452Z,101969.28
2024-05-09T01:13:35.239Z,101969.47
2024-05-09T01:18:47.548Z,101973.31
2024-05-09T01:23:59.007Z,101971.34
2024-05-09T01:29:07.763Z,101960.19
2024-05-09T01:34:17.111Z,101978.38
2024-05-09T01:39:28.918Z,101978.78
2024-05-09T01:44:37.767Z,101978.19
2024-05-09T01:49:46.681Z,101983.47
2024-05-09T01:54:59.578Z,101978.69
2024-05-09T02:00:15.616Z,101982.81
2024-05-09T02:05:28.301Z,101978.59
2024-05-09T02:10:39.999Z,101969.28
2024-05-09T02:15:52.578Z,101976.47
2024-05-09T02:21:01.566Z,101986.59
2024-05-09T02:26:13.280Z,101982.94
2024-05-09T02:31:22.324Z,101982.91
2024-05-09T02:36:31.068Z,101989.97
2024-05-09T02:41:42.645Z,101982.31
2024-05-09T02:46:51.720Z,101989.50
2024-05-09T02:52:01.888Z,101984.41
2024-05-09T02:57:13.272Z,101987.50
2024-05-09T03:02:22.057Z,101976.81
2024-05-09T03:07:30.747Z,101982.63
2024-05-09T03:12:42.130Z,101989.84
2024-05-09T03:17:50.776Z,101984.25
2024-05-09T03:22:59.427Z,101993.53
2024-05-09T03:28:11.348Z,101991.66
2024-05-09T03:33:21.089Z,101992.50
2024-05-09T03:38:30.201Z,101993.59
2024-05-09T03:43:41.668Z,101993.34
2024-05-09T03:48:50.268Z,101993.94
2024-05-09T03:53:58.969Z,101990.81
2024-05-09T03:59:10.666Z,101984.91
2024-05-09T04:04:19.598Z,101989.53
2024-05-09T04:09:28.338Z,101984.03
2024-05-09T04:14:39.917Z,101985.47
2024-05-09T04:19:48.803Z,101977.47
2024-05-09T04:24:58.160Z,101984.47
2024-05-09T04:30:18.422Z,101989.88
2024-05-09T04:35:30.773Z,101981.53
2024-05-09T04:40:39.749Z,101973.22
2024-05-09T04:45:51.783Z,101978.22
2024-05-09T04:51:00.674Z,101975.84
2024-05-09T04:56:10.948Z,101972.25
2024-05-09T05:01:22.744Z,101974.94
2024-05-09T05:06:31.602Z,101976.03
2024-05-09T05:11:40.498Z,101977.53
2024-05-09T05:16:51.843Z,101974.00
2024-05-09T05:22:01.773Z,101979.41
2024-05-09T05:27:10.689Z,101973.06
2024-05-09T05:32:22.518Z,101968.63
2024-05-09T05:37:31.577Z,101974.94
2024-05-09T05:42:41.468Z,101960.53
2024-05-09T05:47:53.182Z,101956.59
2024-05-09T05:53:02.194Z,101960.66
2024-05-09T05:58:14.985Z,101957.47
2024-05-09T06:03:26.664Z,101968.09
2024-05-09T06:08:35.674Z,101965.53
2024-05-09T06:13:47.498Z,101964.28
2024-05-09T06:18:59.517Z,101967.78
2024-05-09T06:24:09.050Z,101965.25
2024-05-09T06:29:17.825Z,101965.41
2024-05-09T06:34:30.163Z,101957.53
2024-05-09T06:39:38.988Z,101952.44
2024-05-09T06:44:47.679Z,101958.25
2024-05-09T06:49:59.042Z,101950.69
2024-05-09T06:55:08.442Z,101954.88
2024-05-09T07:00:23.079Z,101951.03
2024-05-09T07:05:42.103Z,101951.47
2024-05-09T07:10:51.260Z,101953.03
2024-05-09T07:16:01.962Z,101948.19
2024-05-09T07:21:13.744Z,101953.13
2024-05-09T07:26:22.776Z,101933.53
2024-05-09T07:31:31.812Z,101940.84
2024-05-09T07:36:42.819Z,101926.41
2024-05-09T07:41:51.344Z,101934.56
2024-05-09T07:53:29.918Z,101929.78
2024-05-09T07:57:44.922Z,101936.72
2024-05-09T08:02:53.778Z,101925.78
2024-05-09T08:08:05.353Z,101920.25
2024-05-09T08:13:14.066Z,101921.09
2024-05-09T08:18:23.328Z,101922.78
2024-05-09T08:23:36.673Z,101914.81
2024-05-09T08:28:45.442Z,101918.25
2024-05-09T08:33:55.626Z,101905.63
2024-05-09T08:39:08.256Z,101903.06
2024-05-09T08:44:17.683Z,101896.31
2024-05-09T08:49:27.971Z,101902.59
2024-05-09T08:54:39.902Z,101898.97
2024-05-09T08:59:52.941Z,101897.03
2024-05-09T09:05:11.237Z,101889.84
2024-05-09T09:10:29.934Z,101885.72
2024-05-09T09:15:51.418Z,101877.56
2024-05-09T09:20:59.968Z,101885.13
2024-05-09T09:26:11.441Z,101882.75
2024-05-09T09:31:23.078Z,101880.00
2024-05-09T09:36:34.382Z,101882.59
2024-05-09T09:41:49.166Z,101878.63
2024-05-09T09:47:02.971Z,101871.59
2024-05-09T09:52:12.314Z,101870.88
2024-05-09T09:57:24.874Z,101874.50
2024-05-09T10:02:33.931Z,101868.00
2024-05-09T10:07:46.807Z,101874.97
2024-05-09T10:13:07.049Z,101868.09
2024-05-09T10:18:16.642Z,101870.09
2024-05-09T10:23:30.557Z,101864.16
2024-05-09T10:28:47.865Z,101863.13
2024-05-09T10:33:58.331Z,101862.84
2024-05-09T10:39:07.658Z,101855.13
2024-05-09T10:44:20.506Z,101849.47
2024-05-09T10:49:29.227Z,101845.56
2024-05-09T10:54:40.849Z,101840.28
2024-05-09T10:59:54.457Z,101832.63
2024-05-09T11:05:03.245Z,101825.25
2024-05-09T11:10:14.837Z,101814.28
2024-05-09T11:15:29.677Z,101809.22
2024-05-09T11:20:42.236Z,101803.88
2024-05-09T11:25:53.904Z,101793.53
2024-05-09T11:31:14.329Z,101787.72
2024-05-09T11:36:23.542Z,101782.53
2024-05-09T11:41:33.902Z,101785.44
2024-05-09T11:46:47.124Z,101768.94
2024-05-09T11:51:56.007Z,101770.34
2024-05-09T11:57:04.345Z,101773.03
2024-05-09T12:02:15.824Z,101762.50
2024-05-09T12:07:25.686Z,101756.41
2024-05-09T12:12:37.115Z,101758.09
2024-05-09T12:17:50.957Z,101745.06
2024-05-09T12:22:59.780Z,101745.25
2024-05-09T12:28:09.692Z,101739.94
2024-05-09T12:33:22.168Z,101748.75
2024-05-09T12:38:31.133Z,101743.84
2024-05-09T12:43:39.752Z,101731.44
2024-05-09T12:48:51.452Z,101727.63
2024-05-09T12:54:00.186Z,101735.41
2024-05-09T12:59:09.246Z,101731.88
2024-05-09T13:04:20.825Z,101731.44
2024-05-09T13:09:30.034Z,101711.78
2024-05-09T13:14:38.585Z,101717.25
2024-05-09T13:19:50.070Z,101712.66
2024-05-09T13:24:58.957Z,101706.31
2024-05-09T13:30:14.541Z,101708.63
2024-05-09T13:35:29.930Z,101694.53
2024-05-09T13:40:39.070Z,101688.38
2024-05-09T13:45:48.168Z,101685.16
2024-05-09T13:50:59.986Z,101672.63
2024-05-09T13:56:09.555Z,101661.47
2024-05-09T14:01:18.609Z,101668.84
2024-05-09T14:06:30.587Z,101662.53
2024-05-09T14:11:39.735Z,101655.75
2024-05-09T14:16:48.756Z,101652.81
2024-05-09T14:22:00.617Z,101651.06
2024-05-09T14:27:09.912Z,101643.91
2024-05-09T14:32:19.883Z,101642.31
2024-05-09T14:37:34.769Z,101640.06
2024-05-09T14:42:44.787Z,101636.91
2024-05-09T14:47:54.108Z,101622.09
2024-05-09T14:53:06.775Z,101619.97
2024-05-09T14:58:16.645Z,101616.72
2024-05-09T15:03:25.619Z,101612.94
2024-05-09T15:08:40.231Z,101611.41
2024-05-09T15:13:49.030Z,101606.88
2024-05-09T15:18:57.649Z,101602.16
2024-05-09T15:24:10.404Z,101589.44
2024-05-09T15:29:19.379Z,101586.22
2024-05-09T15:34:27.802Z,101573.06
2024-05-09T15:39:39.400Z,101571.28
2024-05-09T15:44:53.135Z,101577.13
2024-05-09T15:50:02.247Z,101576.53
2024-05-09T15:55:14.757Z,101576.25
2024-05-09T16:00:36.549Z,101568.06
2024-05-09T16:05:49.277Z,101560.50
2024-05-09T16:11:01.085Z,101554.19
2024-05-09T16:16:10.970Z,101545.97
2024-05-09T16:21:20.078Z,101539.03
2024-05-09T16:26:31.137Z,101543.22
2024-05-09T16:31:39.812Z,101537.09
2024-05-09T16:36:48.369Z,101540.31
2024-05-09T16:41:59.746Z,101536.81
2024-05-09T16:47:10.213Z,101536.84
2024-05-09T16:52:19.829Z,101543.63
2024-05-09T16:57:31.403Z,101537.50
2024-05-09T17:02:41.258Z,101538.00
2024-05-09T17:07:50.374Z,101542.13
2024-05-09T17:13:02.202Z,101544.38
2024-05-09T17:18:11.822Z,101543.94
2024-05-09T17:23:20.902Z,101534.47
2024-05-09T17:28:32.510Z,101537.78
2024-05-09T17:33:43.253Z,101526.78
2024-05-09T17:38:52.495Z,101528.75
2024-05-09T17:44:04.134Z,101532.16
2024-05-09T17:49:13.008Z,101538.53
2024-05-09T17:54:21.765Z,101540.81
2024-05-09T17:59:33.428Z,101538.94
2024-05-09T18:04:42.379Z,101545.56
2024-05-09T18:09:51.653Z,101542.13
2024-05-09T18:15:03.656Z,101549.66
2024-05-09T18:20:23.531Z,101555.91
2024-05-09T18:25:37.980Z,101555.09
2024-05-09T18:30:50.220Z,101564.22
2024-05-09T18:35:59.988Z,101566.59
2024-05-09T18:41:09.815Z,101570.19
2024-05-09T18:46:23.120Z,101568.66
2024-05-09T18:51:33.187Z,101575.72
2024-05-09T18:56:43.645Z,101582.59
2024-05-09T19:01:59.610Z,101574.53
2024-05-09T19:07:09.979Z,101575.22
2024-05-09T19:12:20.951Z,101582.72
2024-05-09T19:17:34.254Z,101581.88
2024-05-09T19:22:44.583Z,101578.63
2024-05-09T19:28:00.260Z,101577.34
2024-05-09T19:33:15.400Z,101585.97
2024-05-09T19:38:26.540Z,101582.41
2024-05-09T19:43:37.730Z,101588.81
2024-05-09T19:48:52.613Z,101583.06
2024-05-09T19:54:02.767Z,101584.66
2024-05-09T19:59:12.286Z,101599.91
2024-05-09T20:04:24.557Z,101602.44
2024-05-09T20:09:35.257Z,101594.13
2024-05-09T20:14:45.778Z,101606.47
2024-05-09T20:19:59.720Z,101601.16
2024-05-09T20:25:12.246Z,101606.63
2024-05-09T20:30:30.515Z,101606.63
2024-05-09T20:35:48.442Z,101614.50
2024-05-09T20:40:59.905Z,101605.41
2024-05-09T20:46:10.762Z,101608.88
2024-05-09T20:51:23.084Z,101614.00
2024-05-09T20:56:32.216Z,101603.22
2024-05-09T21:01:43.206Z,101594.78
2024-05-09T21:06:56.440Z,101596.69
2024-05-09T21:12:05.623Z,101607.22
2024-05-09T21:17:14.714Z,101599.25
2024-05-09T21:22:26.069Z,101604.53
2024-05-09T21:27:35.194Z,101601.88
2024-05-09T21:32:43.806Z,101602.59
2024-05-09T21:37:55.274Z,101593.81
2024-05-09T21:43:04.498Z,101599.88
2024-05-09T21:48:16.789Z,101591.66
2024-05-09T21:53:28.543Z,101589.50
2024-05-09T21:58:37.576Z,101587.16
2024-05-09T22:03:46.955Z,101589.31
2024-05-09T22:08:58.888Z,101584.25
2024-05-09T22:14:07.975Z,101576.16
2024-05-09T22:19:16.748Z,101580.53
2024-05-09T22:24:28.461Z,101578.78
2024-05-09T22:29:37.247Z,101584.13
2024-05-09T22:34:46.148Z,101572.75
2024-05-09T22:39:57.588Z,101573.94
2024-05-09T22:45:06.163Z,101583.03
2024-05-09T22:50:18.678Z,101583.72
2024-05-09T22:55:37.386Z,101579.56
2024-05-09T23:00:46.191Z,101577.91
2024-05-09T23:05:55.146Z,101581.50
2024-05-09T23:11:07.080Z,101580.09
2024-05-09T23:16:15.656Z,101585.28
2024-05-09T23:21:24.447Z,101575.97
2024-05-09T23:26:36.011Z,101572.94
2024-05-09T23:31:45.055Z,101573.47
2024-05-09T23:36:53.618Z,101571.47
2024-05-09T23:42:05.233Z,101575.22
2024-05-09T23:47:14.025Z,101567.88
2024-05-09T23:52:22.886Z,101562.63
2024-05-09T23:57:34.666Z,101561.00
